sensor_id;sensor_type;location;lat;lon;timestamp;pressure;altitude;pressure_sealevel;temperature
81399;BMP280;70853;50.074;10.224;2024-03-08T00:01:09;98669.84;;;1.82
81399;BMP280;70853;50.074;10.224;2024-03-08T00:03:35;98663.22;;;1.71
81399;BMP280;70853;50.074;10.224;2024-03-08T00:06:01;98652.00;;;1.86
81399;BMP280;70853;50.074;10.224;2024-03-08T00:08:26;98673.06;;;2.06
81399;BMP280;70853;50.074;10.224;2024-03-08T00:10:52;98665.25;;;2.12
81399;BMP280;70853;50.074;10.224;2024-03-08T00:13:17;98661.81;;;2.05
81399;BMP280;70853;50.074;10.224;2024-03-08T00:15:43;98657.25;;;2.21
81399;BMP280;70853;50.074;10.224;2024-03-08T00:18:08;98642.75;;;2.11
81399;BMP280;70853;50.074;10.224;2024-03-08T00:20:34;98660.91;;;2.08
81399;BMP280;70853;50.074;10.224;2024-03-08T00:22:59;98651.25;;;1.85
81399;BMP280;70853;50.074;10.224;2024-03-08T00:25:25;98651.03;;;2.03
81399;BMP280;70853;50.074;10.224;2024-03-08T00:27:50;98659.00;;;2.09
81399;BMP280;70853;50.074;10.224;2024-03-08T00:30:16;98659.47;;;1.93
81399;BMP280;70853;50.074;10.224;2024-03-08T00:32:41;98639.22;;;1.79
81399;BMP280;70853;50.074;10.224;2024-03-08T00:35:07;98651.50;;;1.87
81399;BMP280;70853;50.074;10.224;2024-03-08T00:37:33;98649.84;;;2.04
81399;BMP280;70853;50.074;10.224;2024-03-08T00:39:59;98651.03;;;2.03
81399;BMP280;70853;50.074;10.224;2024-03-08T00:42:25;98645.06;;;1.88
81399;BMP280;70853;50.074;10.224;2024-03-08T00:44:50;98652.66;;;2.01
81399;BMP280;70853;50.074;10.224;2024-03-08T00:47:16;98644.63;;;1.90
81399;BMP280;70853;50.074;10.224;2024-03-08T00:49:42;98643.91;;;1.89
81399;BMP280;70853;50.074;10.224;2024-03-08T00:52:07;98629.97;;;1.68
81399;BMP280;70853;50.074;10.224;2024-03-08T00:54:34;98637.78;;;1.98
81399;BMP280;70853;50.074;10.224;2024-03-08T00:57:01;98620.50;;;1.91
81399;BMP280;70853;50.074;10.224;2024-03-08T00:59:30;98626.00;;;1.93
81399;BMP280;70853;50.074;10.224;2024-03-08T01:02:01;98627.06;;;2.01
81399;BMP280;70853;50.074;10.224;2024-03-08T01:04:26;98631.88;;;2.03
81399;BMP280;70853;50.074;10.224;2024-03-08T01:06:55;98616.88;;;1.89
81399;BMP280;70853;50.074;10.224;2024-03-08T01:09:22;98601.69;;;1.98
81399;BMP280;70853;50.074;10.224;2024-03-08T01:11:47;98618.63;;;2.12
81399;BMP280;70853;50.074;10.224;2024-03-08T01:14:13;98607.59;;;1.93
81399;BMP280;70853;50.074;10.224;2024-03-08T01:16:38;98610.47;;;1.95
81399;BMP280;70853;50.074;10.224;2024-03-08T01:19:04;98614.50;;;1.91
81399;BMP280;70853;50.074;10.224;2024-03-08T01:21:29;98610.66;;;2.06
81399;BMP280;70853;50.074;10.224;2024-03-08T01:23:55;98596.16;;;1.96
81399;BMP280;70853;50.074;10.224;2024-03-08T01:26:20;98603.25;;;1.90
81399;BMP280;70853;50.074;10.224;2024-03-08T01:28:46;98590.25;;;1.81
81399;BMP280;70853;50.074;10.224;2024-03-08T01:31:11;98596.84;;;1.77
81399;BMP280;70853;50.074;10.224;2024-03-08T01:33:37;98591.44;;;1.65
81399;BMP280;70853;50.074;10.224;2024-03-08T01:36:03;98592.59;;;1.79
81399;BMP280;70853;50.074;10.224;2024-03-08T01:38:28;98589.28;;;1.64
81399;BMP280;70853;50.074;10.224;2024-03-08T01:40:54;98576.84;;;1.64
81399;BMP280;70853;50.074;10.224;2024-03-08T01:43:25;98587.16;;;1.83
81399;BMP280;70853;50.074;10.224;2024-03-08T01:45:56;98581.75;;;1.57
81399;BMP280;70853;50.074;10.224;2024-03-08T01:48:23;98583.28;;;1.63
81399;BMP280;70853;50.074;10.224;2024-03-08T01:50:49;98582.66;;;1.54
81399;BMP280;70853;50.074;10.224;2024-03-08T01:53:16;98578.75;;;1.64
81399;BMP280;70853;50.074;10.224;2024-03-08T01:55:44;98582.13;;;1.50
81399;BMP280;70853;50.074;10.224;2024-03-08T01:58:11;98565.53;;;1.44
81399;BMP280;70853;50.074;10.224;2024-03-08T02:00:40;98560.47;;;1.40
81399;BMP280;70853;50.074;10.224;2024-03-08T02:03:05;98563.50;;;1.33
81399;BMP280;70853;50.074;10.224;2024-03-08T02:05:31;98553.97;;;1.21
81399;BMP280;70853;50.074;10.224;2024-03-08T02:07:57;98545.09;;;1.33
81399;BMP280;70853;50.074;10.224;2024-03-08T02:10:23;98558.44;;;1.29
81399;BMP280;70853;50.074;10.224;2024-03-08T02:12:49;98546.59;;;1.39
81399;BMP280;70853;50.074;10.224;2024-03-08T02:15:14;98555.84;;;1.50
81399;BMP280;70853;50.074;10.224;2024-03-08T02:17:40;98544.06;;;1.45
81399;BMP280;70853;50.074;10.224;2024-03-08T02:20:06;98543.66;;;1.17
81399;BMP280;70853;50.074;10.224;2024-03-08T02:22:34;98548.81;;;1.26
81399;BMP280;70853;50.074;10.224;2024-03-08T02:25:00;98548.75;;;1.06
81399;BMP280;70853;50.074;10.224;2024-03-08T02:27:29;98551.69;;;1.14
81399;BMP280;70853;50.074;10.224;2024-03-08T02:29:58;98534.31;;;1.01
81399;BMP280;70853;50.074;10.224;2024-03-08T02:32:24;98537.41;;;1.29
81399;BMP280;70853;50.074;10.224;2024-03-08T02:34:50;98526.72;;;1.18
81399;BMP280;70853;50.074;10.224;2024-03-08T02:37:18;98532.97;;;1.21
81399;BMP280;70853;50.074;10.224;2024-03-08T02:39:44;98526.97;;;1.20
81399;BMP280;70853;50.074;10.224;2024-03-08T02:42:10;98526.16;;;1.14
81399;BMP280;70853;50.074;10.224;2024-03-08T02:44:36;98520.22;;;1.49
81399;BMP280;70853;50.074;10.224;2024-03-08T02:47:01;98529.38;;;1.53
81399;BMP280;70853;50.074;10.224;2024-03-08T02:49:27;98531.09;;;1.42
81399;BMP280;70853;50.074;10.224;2024-03-08T02:51:53;98528.13;;;1.34
81399;BMP280;70853;50.074;10.224;2024-03-08T02:54:19;98524.34;;;1.20
81399;BMP280;70853;50.074;10.224;2024-03-08T02:56:45;98506.44;;;1.04
81399;BMP280;70853;50.074;10.224;2024-03-08T02:59:15;98524.31;;;1.35
81399;BMP280;70853;50.074;10.224;2024-03-08T03:01:43;98523.44;;;1.23
81399;BMP280;70853;50.074;10.224;2024-03-08T03:04:09;98515.50;;;1.03
81399;BMP280;70853;50.074;10.224;2024-03-08T03:06:34;98518.72;;;1.13
81399;BMP280;70853;50.074;10.224;2024-03-08T03:09:01;98512.41;;;1.19
81399;BMP280;70853;50.074;10.224;2024-03-08T03:11:27;98505.81;;;1.09
81399;BMP280;70853;50.074;10.224;2024-03-08T03:13:52;98509.44;;;1.47
81399;BMP280;70853;50.074;10.224;2024-03-08T03:16:21;98508.09;;;1.36
81399;BMP280;70853;50.074;10.224;2024-03-08T03:18:46;98508.16;;;1.42
81399;BMP280;70853;50.074;10.224;2024-03-08T03:21:13;98515.19;;;1.30
81399;BMP280;70853;50.074;10.224;2024-03-08T03:23:41;98506.44;;;1.54
81399;BMP280;70853;50.074;10.224;2024-03-08T03:26:10;98505.41;;;1.31
81399;BMP280;70853;50.074;10.224;2024-03-08T03:28:37;98508.34;;;1.38
81399;BMP280;70853;50.074;10.224;2024-03-08T03:31:08;98504.16;;;1.47
81399;BMP280;70853;50.074;10.224;2024-03-08T03:33:35;98495.03;;;1.42
81399;BMP280;70853;50.074;10.224;2024-03-08T03:36:01;98493.56;;;1.41
81399;BMP280;70853;50.074;10.224;2024-03-08T03:38:27;98488.47;;;1.32
81399;BMP280;70853;50.074;10.224;2024-03-08T03:40:53;98491.09;;;1.32
81399;BMP280;70853;50.074;10.224;2024-03-08T03:43:23;98491.34;;;1.34
81399;BMP280;70853;50.074;10.224;2024-03-08T03:45:49;98494.75;;;1.40
81399;BMP280;70853;50.074;10.224;2024-03-08T03:48:14;98490.28;;;1.26
81399;BMP280;70853;50.074;10.224;2024-03-08T03:50:40;98482.41;;;1.26
81399;BMP280;70853;50.074;10.224;2024-03-08T03:53:05;98476.97;;;1.29
81399;BMP280;70853;50.074;10.224;2024-03-08T03:55:35;98479.19;;;1.36
81399;BMP280;70853;50.074;10.224;2024-03-08T03:58:02;98483.25;;;1.37
81399;BMP280;70853;50.074;10.224;2024-03-08T04:00:28;98478.72;;;1.38
81399;BMP280;70853;50.074;10.224;2024-03-08T04:02:53;98472.50;;;1.35
81399;BMP280;70853;50.074;10.224;2024-03-08T04:05:20;98473.81;;;1.25
81399;BMP280;70853;50.074;10.224;2024-03-08T04:07:45;98468.53;;;1.25
81399;BMP280;70853;50.074;10.224;2024-03-08T04:10:11;98470.13;;;1.37
81399;BMP280;70853;50.074;10.224;2024-03-08T04:12:37;98477.16;;;1.46
81399;BMP280;70853;50.074;10.224;2024-03-08T04:15:03;98456.22;;;1.31
81399;BMP280;70853;50.074;10.224;2024-03-08T04:17:30;98460.31;;;1.38
81399;BMP280;70853;50.074;10.224;2024-03-08T04:19:55;98459.41;;;1.41
81399;BMP280;70853;50.074;10.224;2024-03-08T04:22:21;98468.28;;;1.44
81399;BMP280;70853;50.074;10.224;2024-03-08T04:24:46;98462.66;;;1.51
81399;BMP280;70853;50.074;10.224;2024-03-08T04:27:12;98464.84;;;1.52
81399;BMP280;70853;50.074;10.224;2024-03-08T04:29:38;98467.91;;;1.51
81399;BMP280;70853;50.074;10.224;2024-03-08T04:32:04;98467.19;;;1.50
81399;BMP280;70853;50.074;10.224;2024-03-08T04:34:33;98459.59;;;1.37
81399;BMP280;70853;50.074;10.224;2024-03-08T04:37:00;98468.09;;;1.47
81399;BMP280;70853;50.074;10.224;2024-03-08T04:39:25;98460.94;;;1.48
81399;BMP280;70853;50.074;10.224;2024-03-08T04:41:55;98459.22;;;1.45
81399;BMP280;70853;50.074;10.224;2024-03-08T04:44:22;98464.66;;;1.41
81399;BMP280;70853;50.074;10.224;2024-03-08T04:46:49;98454.88;;;1.42
81399;BMP280;70853;50.074;10.224;2024-03-08T04:49:15;98456.88;;;1.47
81399;BMP280;70853;50.074;10.224;2024-03-08T04:51:40;98443.34;;;1.33
81399;BMP280;70853;50.074;10.224;2024-03-08T04:54:05;98443.19;;;1.43
81399;BMP280;70853;50.074;10.224;2024-03-08T04:56:31;98439.06;;;1.36
81399;BMP280;70853;50.074;10.224;2024-03-08T04:58:57;98449.09;;;1.37
81399;BMP280;70853;50.074;10.224;2024-03-08T05:01:22;98453.97;;;1.45
81399;BMP280;70853;50.074;10.224;2024-03-08T05:03:48;98447.53;;;1.25
81399;BMP280;70853;50.074;10.224;2024-03-08T05:06:16;98452.00;;;1.39
81399;BMP280;70853;50.074;10.224;2024-03-08T05:08:41;98457.13;;;1.28
81399;BMP280;70853;50.074;10.224;2024-03-08T05:11:07;98449.44;;;1.25
81399;BMP280;70853;50.074;10.224;2024-03-08T05:13:32;98448.44;;;1.22
81399;BMP280;70853;50.074;10.224;2024-03-08T05:15:59;98452.78;;;1.25
81399;BMP280;70853;50.074;10.224;2024-03-08T05:18:25;98442.91;;;1.20
81399;BMP280;70853;50.074;10.224;2024-03-08T05:20:53;98452.78;;;1.25
81399;BMP280;70853;50.074;10.224;2024-03-08T05:23:18;98446.00;;;1.19
81399;BMP280;70853;50.074;10.224;2024-03-08T05:25:45;98447.63;;;1.16
81399;BMP280;70853;50.074;10.224;2024-03-08T05:28:12;98450.06;;;1.20
81399;BMP280;70853;50.074;10.224;2024-03-08T05:30:38;98457.94;;;1.20
81399;BMP280;70853;50.074;10.224;2024-03-08T05:33:04;98439.78;;;1.01
81399;BMP280;70853;50.074;10.224;2024-03-08T05:35:30;98445.00;;;1.16
81399;BMP280;70853;50.074;10.224;2024-03-08T05:37:55;98445.91;;;1.13
81399;BMP280;70853;50.074;10.224;2024-03-08T05:40:21;98454.78;;;1.16
81399;BMP280;70853;50.074;10.224;2024-03-08T05:42:47;98444.03;;;0.99
81399;BMP280;70853;50.074;10.224;2024-03-08T05:45:13;98449.56;;;1.01
81399;BMP280;70853;50.074;10.224;2024-03-08T05:47:39;98446.19;;;1.15
81399;BMP280;70853;50.074;10.224;2024-03-08T05:50:06;98440.16;;;0.94
81399;BMP280;70853;50.074;10.224;2024-03-08T05:52:35;98448.19;;;0.91
81399;BMP280;70853;50.074;10.224;2024-03-08T05:55:01;98448.13;;;1.00
81399;BMP280;70853;50.074;10.224;2024-03-08T05:57:26;98444.22;;;0.95
81399;BMP280;70853;50.074;10.224;2024-03-08T05:59:52;98447.94;;;0.89
81399;BMP280;70853;50.074;10.224;2024-03-08T06:02:17;98421.41;;;0.87
81399;BMP280;70853;50.074;10.224;2024-03-08T06:04:46;98440.78;;;0.89
81399;BMP280;70853;50.074;10.224;2024-03-08T06:07:12;98445.22;;;0.98
81399;BMP280;70853;50.074;10.224;2024-03-08T06:09:38;98441.88;;;0.97
81399;BMP280;70853;50.074;10.224;2024-03-08T06:12:04;98447.56;;;0.96
81399;BMP280;70853;50.074;10.224;2024-03-08T06:14:30;98446.84;;;0.95
81399;BMP280;70853;50.074;10.224;2024-03-08T06:16:55;98443.22;;;1.08
81399;BMP280;70853;50.074;10.224;2024-03-08T06:19:20;98455.00;;;0.97
81399;BMP280;70853;50.074;10.224;2024-03-08T06:21:46;98448.25;;;1.11
81399;BMP280;70853;50.074;10.224;2024-03-08T06:24:11;98451.75;;;1.02
81399;BMP280;70853;50.074;10.224;2024-03-08T06:26:37;98449.38;;;1.05
81399;BMP280;70853;50.074;10.224;2024-03-08T06:29:03;98454.50;;;1.28
81399;BMP280;70853;50.074;10.224;2024-03-08T06:31:32;98451.88;;;1.28
81399;BMP280;70853;50.074;10.224;2024-03-08T06:33:57;98445.72;;;1.31
81399;BMP280;70853;50.074;10.224;2024-03-08T06:36:23;98454.31;;;1.52
81399;BMP280;70853;50.074;10.224;2024-03-08T06:38:49;98455.56;;;1.57
81399;BMP280;70853;50.074;10.224;2024-03-08T06:41:14;98451.16;;;1.48
81399;BMP280;70853;50.074;10.224;2024-03-08T06:43:43;98452.88;;;1.51
81399;BMP280;70853;50.074;10.224;2024-03-08T06:46:09;98444.53;;;1.53
81399;BMP280;70853;50.074;10.224;2024-03-08T06:48:38;98458.06;;;1.66
81399;BMP280;70853;50.074;10.224;2024-03-08T06:51:04;98439.09;;;1.56
81399;BMP280;70853;50.074;10.224;2024-03-08T06:53:30;98453.63;;;1.72
81399;BMP280;70853;50.074;10.224;2024-03-08T06:55:56;98449.53;;;1.71
81399;BMP280;70853;50.074;10.224;2024-03-08T06:58:22;98442.81;;;1.90
81399;BMP280;70853;50.074;10.224;2024-03-08T07:00:48;98444.00;;;1.89
81399;BMP280;70853;50.074;10.224;2024-03-08T07:03:17;98443.78;;;1.93
81399;BMP280;70853;50.074;10.224;2024-03-08T07:05:43;98450.66;;;1.85
81399;BMP280;70853;50.074;10.224;2024-03-08T07:08:08;98444.78;;;1.95
81399;BMP280;70853;50.074;10.224;2024-03-08T07:10:34;98441.69;;;1.97
81399;BMP280;70853;50.074;10.224;2024-03-08T07:13:00;98437.41;;;1.99
81399;BMP280;70853;50.074;10.224;2024-03-08T07:15:27;98446.50;;;2.19
81399;BMP280;70853;50.074;10.224;2024-03-08T07:17:54;98438.63;;;2.24
81399;BMP280;70853;50.074;10.224;2024-03-08T07:20:19;98424.22;;;2.20
81399;BMP280;70853;50.074;10.224;2024-03-08T07:22:46;98434.38;;;2.32
81399;BMP280;70853;50.074;10.224;2024-03-08T07:25:18;98431.53;;;2.36
81399;BMP280;70853;50.074;10.224;2024-03-08T07:27:50;98428.50;;;2.43
81399;BMP280;70853;50.074;10.224;2024-03-08T07:30:16;98433.53;;;2.41
81399;BMP280;70853;50.074;10.224;2024-03-08T07:33:00;98433.91;;;2.60
81399;BMP280;70853;50.074;10.224;2024-03-08T07:35:30;98416.09;;;2.49
81399;BMP280;70853;50.074;10.224;2024-03-08T07:37:56;98410.69;;;2.58
81399;BMP280;70853;50.074;10.224;2024-03-08T07:40:23;98410.75;;;2.69
81399;BMP280;70853;50.074;10.224;2024-03-08T07:42:49;98400.44;;;2.66
81399;BMP280;70853;50.074;10.224;2024-03-08T07:45:15;98389.47;;;2.73
81399;BMP280;70853;50.074;10.224;2024-03-08T07:47:41;98398.22;;;2.96
81399;BMP280;70853;50.074;10.224;2024-03-08T07:50:07;98392.75;;;3.05
81399;BMP280;70853;50.074;10.224;2024-03-08T07:52:36;98404.25;;;3.02
81399;BMP280;70853;50.074;10.224;2024-03-08T07:55:02;98393.50;;;3.05
81399;BMP280;70853;50.074;10.224;2024-03-08T07:57:31;98395.03;;;3.29
81399;BMP280;70853;50.074;10.224;2024-03-08T07:59:57;98382.09;;;3.20
81399;BMP280;70853;50.074;10.224;2024-03-08T08:02:22;98388.34;;;3.28
81399;BMP280;70853;50.074;10.224;2024-03-08T08:04:48;98387.22;;;3.57
81399;BMP280;70853;50.074;10.224;2024-03-08T08:07:13;98377.41;;;3.46
81399;BMP280;70853;50.074;10.224;2024-03-08T08:09:40;98384.38;;;3.60
81399;BMP280;70853;50.074;10.224;2024-03-08T08:12:10;98376.50;;;3.71
81399;BMP280;70853;50.074;10.224;2024-03-08T08:14:40;98368.81;;;3.68
81399;BMP280;70853;50.074;10.224;2024-03-08T08:17:06;98359.03;;;4.02
81399;BMP280;70853;50.074;10.224;2024-03-08T08:19:34;98360.69;;;4.16
81399;BMP280;70853;50.074;10.224;2024-03-08T08:22:01;98354.22;;;3.95
81399;BMP280;70853;50.074;10.224;2024-03-08T08:24:27;98358.56;;;4.09
81399;BMP280;70853;50.074;10.224;2024-03-08T08:26:53;98353.03;;;4.35
81399;BMP280;70853;50.074;10.224;2024-03-08T08:29:18;98348.72;;;4.26
81399;BMP280;70853;50.074;10.224;2024-03-08T08:31:45;98344.84;;;4.44
81399;BMP280;70853;50.074;10.224;2024-03-08T08:34:11;98339.81;;;4.18
81399;BMP280;70853;50.074;10.224;2024-03-08T08:36:40;98345.81;;;4.46
81399;BMP280;70853;50.074;10.224;2024-03-08T08:39:05;98341.69;;;4.62
81399;BMP280;70853;50.074;10.224;2024-03-08T08:41:37;98332.84;;;4.43
81399;BMP280;70853;50.074;10.224;2024-03-08T08:44:03;98321.31;;;4.40
81399;BMP280;70853;50.074;10.224;2024-03-08T08:46:28;98339.72;;;4.85
81399;BMP280;70853;50.074;10.224;2024-03-08T08:48:54;98343.81;;;4.80
81399;BMP280;70853;50.074;10.224;2024-03-08T08:51:19;98326.97;;;4.89
81399;BMP280;70853;50.074;10.224;2024-03-08T08:53:45;98334.34;;;5.07
81399;BMP280;70853;50.074;10.224;2024-03-08T08:56:15;98328.28;;;5.18
81399;BMP280;70853;50.074;10.224;2024-03-08T08:58:43;98329.31;;;5.04
81399;BMP280;70853;50.074;10.224;2024-03-08T09:01:09;98332.88;;;5.12
81399;BMP280;70853;50.074;10.224;2024-03-08T09:03:36;98322.44;;;5.30
81399;BMP280;70853;50.074;10.224;2024-03-08T09:06:03;98326.06;;;5.27
81399;BMP280;70853;50.074;10.224;2024-03-08T09:08:29;98305.75;;;5.47
81399;BMP280;70853;50.074;10.224;2024-03-08T09:10:54;98322.13;;;5.81
81399;BMP280;70853;50.074;10.224;2024-03-08T09:13:20;98308.28;;;5.69
81399;BMP280;70853;50.074;10.224;2024-03-08T09:15:45;98297.09;;;5.82
81399;BMP280;70853;50.074;10.224;2024-03-08T09:18:11;98299.53;;;6.04
81399;BMP280;70853;50.074;10.224;2024-03-08T09:20:36;98301.63;;;5.87
81399;BMP280;70853;50.074;10.224;2024-03-08T09:23:02;98289.66;;;5.75
81399;BMP280;70853;50.074;10.224;2024-03-08T09:25:29;98305.03;;;6.12
81399;BMP280;70853;50.074;10.224;2024-03-08T09:27:55;98289.63;;;6.10
81399;BMP280;70853;50.074;10.224;2024-03-08T09:30:21;98294.16;;;6.15
81399;BMP280;70853;50.074;10.224;2024-03-08T09:32:47;98282.03;;;6.25
81399;BMP280;70853;50.074;10.224;2024-03-08T09:35:12;98287.34;;;5.95
81399;BMP280;70853;50.074;10.224;2024-03-08T09:37:38;98288.97;;;6.28
81399;BMP280;70853;50.074;10.224;2024-03-08T09:40:04;98284.41;;;6.48
81399;BMP280;70853;50.074;10.224;2024-03-08T09:42:37;98277.25;;;6.42
81399;BMP280;70853;50.074;10.224;2024-03-08T09:45:08;98270.13;;;6.32
81399;BMP280;70853;50.074;10.224;2024-03-08T09:47:38;98273.59;;;6.45
81399;BMP280;70853;50.074;10.224;2024-03-08T09:50:06;98263.03;;;6.64
81399;BMP280;70853;50.074;10.224;2024-03-08T09:52:37;98266.94;;;6.82
81399;BMP280;70853;50.074;10.224;2024-03-08T09:55:05;98259.97;;;6.79
81399;BMP280;70853;50.074;10.224;2024-03-08T09:57:32;98264.44;;;6.84
81399;BMP280;70853;50.074;10.224;2024-03-08T09:59:58;98257.00;;;7.01
81399;BMP280;70853;50.074;10.224;2024-03-08T10:02:24;98252.72;;;6.79
81399;BMP280;70853;50.074;10.224;2024-03-08T10:04:51;98257.84;;;7.09
81399;BMP280;70853;50.074;10.224;2024-03-08T10:07:18;98255.78;;;7.02
81399;BMP280;70853;50.074;10.224;2024-03-08T10:09:44;98257.13;;;7.28
81399;BMP280;70853;50.074;10.224;2024-03-08T10:12:16;98239.59;;;7.38
81399;BMP280;70853;50.074;10.224;2024-03-08T10:14:42;98245.19;;;7.34
81399;BMP280;70853;50.074;10.224;2024-03-08T10:17:08;98234.34;;;7.19
81399;BMP280;70853;50.074;10.224;2024-03-08T10:19:33;98238.28;;;7.12
81399;BMP280;70853;50.074;10.224;2024-03-08T10:21:59;98208.09;;;7.15
81399;BMP280;70853;50.074;10.224;2024-03-08T10:24:25;98233.31;;;7.54
81399;BMP280;70853;50.074;10.224;2024-03-08T10:26:58;98218.97;;;7.31
81399;BMP280;70853;50.074;10.224;2024-03-08T10:29:24;98230.50;;;7.46
81399;BMP280;70853;50.074;10.224;2024-03-08T10:31:50;98224.97;;;7.63
81399;BMP280;70853;50.074;10.224;2024-03-08T10:34:16;98201.88;;;7.58
81399;BMP280;70853;50.074;10.224;2024-03-08T10:36:42;98218.03;;;7.86
81399;BMP280;70853;50.074;10.224;2024-03-08T10:39:23;98209.09;;;7.71
81399;BMP280;70853;50.074;10.224;2024-03-08T10:41:56;98213.72;;;7.83
81399;BMP280;70853;50.074;10.224;2024-03-08T10:47:02;98212.19;;;8.14
81399;BMP280;70853;50.074;10.224;2024-03-08T10:50:02;98202.28;;;8.15
81399;BMP280;70853;50.074;10.224;2024-03-08T10:52:29;98201.63;;;8.22
81399;BMP280;70853;50.074;10.224;2024-03-08T10:54:56;98202.06;;;8.13
81399;BMP280;70853;50.074;10.224;2024-03-08T10:57:22;98197.09;;;8.43
81399;BMP280;70853;50.074;10.224;2024-03-08T10:59:49;98198.91;;;8.61
81399;BMP280;70853;50.074;10.224;2024-03-08T11:02:16;98193.66;;;8.69
81399;BMP280;70853;50.074;10.224;2024-03-08T11:04:49;98195.97;;;8.72
81399;BMP280;70853;50.074;10.224;2024-03-08T11:07:15;98193.88;;;8.71
81399;BMP280;70853;50.074;10.224;2024-03-08T11:09:47;98202.16;;;8.67
81399;BMP280;70853;50.074;10.224;2024-03-08T11:12:26;98177.63;;;8.61
81399;BMP280;70853;50.074;10.224;2024-03-08T11:14:56;98161.38;;;8.52
81399;BMP280;70853;50.074;10.224;2024-03-08T11:19:56;98174.78;;;8.80
81399;BMP280;70853;50.074;10.224;2024-03-08T11:22:28;98165.94;;;9.06
81399;BMP280;70853;50.074;10.224;2024-03-08T11:25:09;98163.53;;;9.15
81399;BMP280;70853;50.074;10.224;2024-03-08T11:27:38;98151.41;;;9.28
81399;BMP280;70853;50.074;10.224;2024-03-08T11:30:08;98153.97;;;9.20
81399;BMP280;70853;50.074;10.224;2024-03-08T11:32:38;98164.91;;;9.09
81399;BMP280;70853;50.074;10.224;2024-03-08T11:35:07;98143.38;;;8.79
81399;BMP280;70853;50.074;10.224;2024-03-08T11:37:34;98145.38;;;9.27
81399;BMP280;70853;50.074;10.224;2024-03-08T11:40:01;98136.50;;;9.32
81399;BMP280;70853;50.074;10.224;2024-03-08T11:42:30;98125.81;;;9.53
81399;BMP280;70853;50.074;10.224;2024-03-08T11:44:56;98134.50;;;9.53
81399;BMP280;70853;50.074;10.224;2024-03-08T11:47:22;98132.94;;;9.66
81399;BMP280;70853;50.074;10.224;2024-03-08T11:49:47;98132.19;;;9.93
81399;BMP280;70853;50.074;10.224;2024-03-08T11:52:15;98122.72;;;9.77
81399;BMP280;70853;50.074;10.224;2024-03-08T11:54:41;98122.00;;;9.77
81399;BMP280;70853;50.074;10.224;2024-03-08T11:57:08;98107.94;;;9.69
81399;BMP280;70853;50.074;10.224;2024-03-08T11:59:35;98106.53;;;9.75
81399;BMP280;70853;50.074;10.224;2024-03-08T12:02:07;98100.94;;;10.02
81399;BMP280;70853;50.074;10.224;2024-03-08T12:04:36;98100.44;;;10.18
81399;BMP280;70853;50.074;10.224;2024-03-08T12:07:02;98102.25;;;10.23
81399;BMP280;70853;50.074;10.224;2024-03-08T12:09:28;98081.06;;;10.18
81399;BMP280;70853;50.074;10.224;2024-03-08T12:11:54;98073.25;;;10.20
81399;BMP280;70853;50.074;10.224;2024-03-08T12:14:19;98089.09;;;10.41
81399;BMP280;70853;50.074;10.224;2024-03-08T12:16:46;98073.66;;;10.62
81399;BMP280;70853;50.074;10.224;2024-03-08T12:19:12;98091.06;;;10.78
81399;BMP280;70853;50.074;10.224;2024-03-08T12:21:37;98078.25;;;10.61
81399;BMP280;70853;50.074;10.224;2024-03-08T12:24:08;98081.81;;;10.79
81399;BMP280;70853;50.074;10.224;2024-03-08T12:26:38;98072.91;;;10.92
81399;BMP280;70853;50.074;10.224;2024-03-08T12:29:23;98080.34;;;11.01
81399;BMP280;70853;50.074;10.224;2024-03-08T12:31:58;98067.41;;;10.67
81399;BMP280;70853;50.074;10.224;2024-03-08T12:34:26;98070.38;;;11.01
81399;BMP280;70853;50.074;10.224;2024-03-08T12:36:58;98075.88;;;11.19
81399;BMP280;70853;50.074;10.224;2024-03-08T12:39:23;98071.19;;;11.34
81399;BMP280;70853;50.074;10.224;2024-03-08T12:41:55;98058.38;;;11.25
81399;BMP280;70853;50.074;10.224;2024-03-08T12:44:22;98062.09;;;11.37
81399;BMP280;70853;50.074;10.224;2024-03-08T12:46:48;98062.09;;;11.37
81399;BMP280;70853;50.074;10.224;2024-03-08T12:49:14;98054.09;;;11.70
81399;BMP280;70853;50.074;10.224;2024-03-08T12:51:46;98024.69;;;11.37
81399;BMP280;70853;50.074;10.224;2024-03-08T12:54:11;98040.47;;;11.58
81399;BMP280;70853;50.074;10.224;2024-03-08T12:56:37;98031.44;;;11.46
81399;BMP280;70853;50.074;10.224;2024-03-08T12:59:04;98029.53;;;11.71
81399;BMP280;70853;50.074;10.224;2024-03-08T13:01:30;98024.28;;;11.81
81399;BMP280;70853;50.074;10.224;2024-03-08T13:03:59;98020.19;;;11.80
81399;BMP280;70853;50.074;10.224;2024-03-08T13:06:29;98011.19;;;11.35
81399;BMP280;70853;50.074;10.224;2024-03-08T13:08:56;98007.81;;;11.92
81399;BMP280;70853;50.074;10.224;2024-03-08T13:11:24;97988.16;;;12.22
81399;BMP280;70853;50.074;10.224;2024-03-08T13:13:50;97998.09;;;12.46
81399;BMP280;70853;50.074;10.224;2024-03-08T13:16:15;97998.00;;;12.36
81399;BMP280;70853;50.074;10.224;2024-03-08T13:18:42;97994.88;;;12.06
81399;BMP280;70853;50.074;10.224;2024-03-08T13:21:08;97998.47;;;12.60
81399;BMP280;70853;50.074;10.224;2024-03-08T13:23:35;98002.06;;;12.79
81399;BMP280;70853;50.074;10.224;2024-03-08T13:26:11;98002.28;;;12.91
81399;BMP280;70853;50.074;10.224;2024-03-08T13:28:49;97987.41;;;12.63
81399;BMP280;70853;50.074;10.224;2024-03-08T13:31:22;97988.59;;;12.53
81399;BMP280;70853;50.074;10.224;2024-03-08T13:33:48;97985.28;;;12.79
81399;BMP280;70853;50.074;10.224;2024-03-08T13:36:14;97992.19;;;12.99
81399;BMP280;70853;50.074;10.224;2024-03-08T13:38:43;97981.19;;;12.44
81399;BMP280;70853;50.074;10.224;2024-03-08T13:41:13;97972.34;;;13.02
81399;BMP280;70853;50.074;10.224;2024-03-08T13:43:46;97977.06;;;13.21
81399;BMP280;70853;50.074;10.224;2024-03-08T13:46:12;97963.34;;;13.34
81399;BMP280;70853;50.074;10.224;2024-03-08T13:48:38;97962.25;;;12.93
81399;BMP280;70853;50.074;10.224;2024-03-08T13:51:07;97960.38;;;13.30
81399;BMP280;70853;50.074;10.224;2024-03-08T13:53:33;97967.25;;;13.23
81399;BMP280;70853;50.074;10.224;2024-03-08T13:56:03;97967.63;;;13.47
81399;BMP280;70853;50.074;10.224;2024-03-08T13:58:29;97951.22;;;13.33
81399;BMP280;70853;50.074;10.224;2024-03-08T14:00:54;97954.41;;;14.14
81399;BMP280;70853;50.074;10.224;2024-03-08T14:03:21;97954.09;;;14.00
81399;BMP280;70853;50.074;10.224;2024-03-08T14:05:46;97949.13;;;13.97
81399;BMP280;70853;50.074;10.224;2024-03-08T14:08:12;97953.97;;;14.27
81399;BMP280;70853;50.074;10.224;2024-03-08T14:10:38;97944.22;;;13.20